sensor_id;sensor_type;location;lat;lon;timestamp;pressure;altitude;pressure_sealevel;temperature;humidity
64192;BME280;50497;50.720;-2.084;2023-02-13T00:00:01;103308.25;;;7.67;100.00
64192;BME280;50497;50.720;-2.084;2023-02-13T00:02:31;103312.69;;;7.70;100.00
64192;BME280;50497;50.720;-2.084;2023-02-13T00:04:57;103297.56;;;7.63;100.00
64192;BME280;50497;50.720;-2.084;2023-02-13T00:07:22;103286.00;;;7.57;100.00
64192;BME280;50497;50.720;-2.084;2023-02-13T00:09:47;103289.56;;;7.61;100.00
64192;BME280;50497;50.720;-2.084;2023-02-13T00:12:13;103305.59;;;7.67;100.00
64192;BME280;50497;50.720;-2.084;2023-02-13T00:14:39;103288.69;;;7.61;100.00
64192;BME280;50497;50.720;-2.084;2023-02-13T00:17:05;103283.25;;;7.48;100.00
64192;BME280;50497;50.720;-2.084;2023-02-13T00:19:31;103306.47;;;7.65;100.00
64192;BME280;50497;50.720;-2.084;2023-02-13T00:21:59;103294.81;;;7.50;100.00
64192;BME280;50497;50.720;-2.084;2023-02-13T00:24:25;103308.25;;;7.66;100.00
64192;BME280;50497;50.720;-2.084;2023-02-13T00:26:50;103296.66;;;7.56;100.00
64192;BME280;50497;50.720;-2.084;2023-02-13T00:29:16;103297.53;;;7.56;100.00
64192;BME280;50497;50.720;-2.084;2023-02-13T00:31:41;103284.13;;;7.43;100.00
64192;BME280;50497;50.720;-2.084;2023-02-13T00:34:07;103299.25;;;7.48;100.00
64192;BME280;50497;50.720;-2.084;2023-02-13T00:36:32;103300.16;;;7.52;100.00
64192;BME280;50497;50.720;-2.084;2023-02-13T00:38:57;103284.19;;;7.49;100.00
64192;BME280;50497;50.720;-2.084;2023-02-13T00:41:23;103293.00;;;7.45;100.00
64192;BME280;50497;50.720;-2.084;2023-02-13T00:43:49;103294.81;;;7.52;100.00
64192;BME280;50497;50.720;-2.084;2023-02-13T00:46:15;103285.88;;;7.37;100.00
64192;BME280;50497;50.720;-2.084;2023-02-13T00:48:41;103304.53;;;7.40;100.00
64192;BME280;50497;50.720;-2.084;2023-02-13T00:51:07;103300.97;;;7.42;100.00
64192;BME280;50497;50.720;-2.084;2023-02-13T00:53:34;103298.34;;;7.46;100.00
64192;BME280;50497;50.720;-2.084;2023-02-13T00:56:00;103294.81;;;7.46;100.00
64192;BME280;50497;50.720;-2.084;2023-02-13T00:58:26;103288.53;;;7.36;100.00
64192;BME280;50497;50.720;-2.084;2023-02-13T01:00:55;103294.81;;;7.47;100.00
64192;BME280;50497;50.720;-2.084;2023-02-13T01:03:22;103293.91;;;7.42;100.00
64192;BME280;50497;50.720;-2.084;2023-02-13T01:05:48;103293.91;;;7.42;100.00
64192;BME280;50497;50.720;-2.084;2023-02-13T01:08:15;103301.00;;;7.46;100.00
64192;BME280;50497;50.720;-2.084;2023-02-13T01:10:41;103292.09;;;7.38;100.00
64192;BME280;50497;50.720;-2.084;2023-02-13T01:13:08;103275.19;;;7.34;100.00
64192;BME280;50497;50.720;-2.084;2023-02-13T01:15:34;103293.88;;;7.44;100.00
64192;BME280;50497;50.720;-2.084;2023-02-13T01:18:00;103289.47;;;7.44;100.00
64192;BME280;50497;50.720;-2.084;2023-02-13T01:20:26;103290.28;;;7.34;100.00
64192;BME280;50497;50.720;-2.084;2023-02-13T01:22:52;103282.28;;;7.35;100.00
64192;BME280;50497;50.720;-2.084;2023-02-13T01:25:18;103283.19;;;7.36;100.00
64192;BME280;50497;50.720;-2.084;2023-02-13T01:27:44;103281.44;;;7.38;100.00
64192;BME280;50497;50.720;-2.084;2023-02-13T01:30:11;103275.13;;;7.25;100.00
64192;BME280;50497;50.720;-2.084;2023-02-13T01:32:42;103276.97;;;7.37;100.00
64192;BME280;50497;50.720;-2.084;2023-02-13T01:35:09;103263.59;;;7.26;100.00
64192;BME280;50497;50.720;-2.084;2023-02-13T01:37:36;103277.88;;;7.36;100.00
64192;BME280;50497;50.720;-2.084;2023-02-13T01:40:10;103271.66;;;7.37;100.00
64192;BME280;50497;50.720;-2.084;2023-02-13T01:42:36;103272.53;;;7.36;100.00
64192;BME280;50497;50.720;-2.084;2023-02-13T01:45:29;103266.28;;;7.29;100.00
64192;BME280;50497;50.720;-2.084;2023-02-13T01:50:39;103262.72;;;7.32;100.00
64192;BME280;50497;50.720;-2.084;2023-02-13T01:53:10;103264.56;;;7.39;100.00
64192;BME280;50497;50.720;-2.084;2023-02-13T01:55:49;103262.81;;;7.41;100.00
64192;BME280;50497;50.720;-2.084;2023-02-13T01:58:19;103264.59;;;7.42;100.00
64192;BME280;50497;50.720;-2.084;2023-02-13T02:00:47;103259.25;;;7.40;100.00
64192;BME280;50497;50.720;-2.084;2023-02-13T02:03:23;103248.63;;;7.40;100.00
64192;BME280;50497;50.720;-2.084;2023-02-13T02:05:56;103245.00;;;7.37;100.00
64192;BME280;50497;50.720;-2.084;2023-02-13T02:08:22;103232.59;;;7.37;100.00
64192;BME280;50497;50.720;-2.084;2023-02-13T02:10:48;103253.03;;;7.40;100.00
64192;BME280;50497;50.720;-2.084;2023-02-13T02:13:17;103251.25;;;7.37;100.00
64192;BME280;50497;50.720;-2.084;2023-02-13T02:15:47;103245.03;;;7.38;100.00
64192;BME280;50497;50.720;-2.084;2023-02-13T02:21:14;103244.09;;;7.32;100.00
64192;BME280;50497;50.720;-2.084;2023-02-13T02:32:54;103246.78;;;7.33;100.00
64192;BME280;50497;50.720;-2.084;2023-02-13T02:35:40;103235.25;;;7.36;100.00
64192;BME280;50497;50.720;-2.084;2023-02-13T02:38:34;103236.19;;;7.43;100.00
64192;BME280;50497;50.720;-2.084;2023-02-13T02:41:21;103228.13;;;7.35;100.00
64192;BME280;50497;50.720;-2.084;2023-02-13T02:44:31;103236.09;;;7.30;100.00
64192;BME280;50497;50.720;-2.084;2023-02-13T02:47:17;103232.56;;;7.30;100.00
64192;BME280;50497;50.720;-2.084;2023-02-13T02:52:58;103239.66;;;7.28;100.00
64192;BME280;50497;50.720;-2.084;2023-02-13T02:55:38;103233.41;;;7.29;100.00
64192;BME280;50497;50.720;-2.084;2023-02-13T02:58:29;103224.50;;;7.24;100.00
64192;BME280;50497;50.720;-2.084;2023-02-13T03:01:17;103237.00;;;7.31;100.00
64192;BME280;50497;50.720;-2.084;2023-02-13T03:04:03;103234.34;;;7.32;100.00
64192;BME280;50497;50.720;-2.084;2023-02-13T03:06:54;103241.41;;;7.29;100.00
64192;BME280;50497;50.720;-2.084;2023-02-13T03:09:36;103229.94;;;7.36;100.00
64192;BME280;50497;50.720;-2.084;2023-02-13T03:12:28;103227.25;;;7.34;100.00
64192;BME280;50497;50.720;-2.084;2023-02-13T03:15:13;103222.75;;;7.29;100.00
64192;BME280;50497;50.720;-2.084;2023-02-13T03:17:39;103231.69;;;7.34;100.00
64192;BME280;50497;50.720;-2.084;2023-02-13T03:20:51;103218.31;;;7.25;100.00
64192;BME280;50497;50.720;-2.084;2023-02-13T03:23:51;103239.63;;;7.26;100.00
64192;BME280;50497;50.720;-2.084;2023-02-13T03:29:24;103213.81;;;7.13;100.00
64192;BME280;50497;50.720;-2.084;2023-02-13T03:35:26;103228.94;;;7.20;100.00
64192;BME280;50497;50.720;-2.084;2023-02-13T03:38:18;103228.97;;;7.26;100.00
64192;BME280;50497;50.720;-2.084;2023-02-13T03:40:50;103233.38;;;7.19;100.00
64192;BME280;50497;50.720;-2.084;2023-02-13T03:46:30;103229.84;;;7.27;100.00
64192;BME280;50497;50.720;-2.084;2023-02-13T03:48:58;103221.84;;;7.24;100.00
64192;BME280;50497;50.720;-2.084;2023-02-13T03:51:51;103230.75;;;7.29;100.00
64192;BME280;50497;50.720;-2.084;2023-02-13T03:56:44;103212.06;;;7.19;100.00
64192;BME280;50497;50.720;-2.084;2023-02-13T03:59:33;103220.13;;;7.27;100.00
64192;BME280;50497;50.720;-2.084;2023-02-13T04:02:09;103229.88;;;7.28;100.00
64192;BME280;50497;50.720;-2.084;2023-02-13T04:04:50;103236.13;;;7.35;100.00
64192;BME280;50497;50.720;-2.084;2023-02-13T04:07:20;103227.28;;;7.37;100.00
64192;BME280;50497;50.720;-2.084;2023-02-13T04:10:08;103219.28;;;7.36;100.00
64192;BME280;50497;50.720;-2.084;2023-02-13T04:15:19;103223.69;;;7.37;100.00
64192;BME280;50497;50.720;-2.084;2023-02-13T04:17:56;103213.94;;;7.36;100.00
64192;BME280;50497;50.720;-2.084;2023-02-13T04:20:27;103205.06;;;7.37;100.00
64192;BME280;50497;50.720;-2.084;2023-02-13T04:22:56;103207.72;;;7.32;100.00
64192;BME280;50497;50.720;-2.084;2023-02-13T04:25:22;103179.22;;;7.22;100.00
64192;BME280;50497;50.720;-2.084;2023-02-13T04:27:47;103184.56;;;7.24;100.00
64192;BME280;50497;50.720;-2.084;2023-02-13T04:30:13;103188.16;;;7.26;100.00
64192;BME280;50497;50.720;-2.084;2023-02-13T04:32:38;103211.28;;;7.36;100.00
64192;BME280;50497;50.720;-2.084;2023-02-13T04:35:04;103203.31;;;7.39;100.00
64192;BME280;50497;50.720;-2.084;2023-02-13T04:37:30;103210.38;;;7.35;100.00
64192;BME280;50497;50.720;-2.084;2023-02-13T04:39:55;103179.25;;;7.19;100.00
64192;BME280;50497;50.720;-2.084;2023-02-13T04:42:21;103199.69;;;7.25;100.00
64192;BME280;50497;50.720;-2.084;2023-02-13T04:44:46;103196.13;;;7.29;100.00
64192;BME280;50497;50.720;-2.084;2023-02-13T04:47:12;103176.56;;;7.14;100.00
64192;BME280;50497;50.720;-2.084;2023-02-13T04:49:37;103203.25;;;7.30;100.00
64192;BME280;50497;50.720;-2.084;2023-02-13T04:52:03;103206.81;;;7.27;100.00
64192;BME280;50497;50.720;-2.084;2023-02-13T04:54:28;103187.22;;;7.24;100.00
64192;BME280;50497;50.720;-2.084;2023-02-13T04:56:54;103214.78;;;7.30;100.00
64192;BME280;50497;50.720;-2.084;2023-02-13T04:59:19;103200.53;;;7.24;100.00
64192;BME280;50497;50.720;-2.084;2023-02-13T05:01:44;103211.25;;;7.31;100.00
64192;BME280;50497;50.720;-2.084;2023-02-13T05:04:10;103193.47;;;7.22;100.00
64192;BME280;50497;50.720;-2.084;2023-02-13T05:06:40;103204.09;;;7.21;100.00
64192;BME280;50497;50.720;-2.084;2023-02-13T05:09:09;103193.44;;;7.18;100.00
64192;BME280;50497;50.720;-2.084;2023-02-13T05:11:35;103213.97;;;7.37;100.00
64192;BME280;50497;50.720;-2.084;2023-02-13T05:14:00;103208.59;;;7.33;100.00
64192;BME280;50497;50.720;-2.084;2023-02-13T05:16:26;103207.72;;;7.32;100.00
64192;BME280;50497;50.720;-2.084;2023-02-13T05:18:51;103193.47;;;7.30;100.00
64192;BME280;50497;50.720;-2.084;2023-02-13T05:21:20;103203.28;;;7.33;100.00
64192;BME280;50497;50.720;-2.084;2023-02-13T05:24:04;103186.31;;;7.17;100.00
64192;BME280;50497;50.720;-2.084;2023-02-13T05:26:30;103209.47;;;7.32;100.00
64192;BME280;50497;50.720;-2.084;2023-02-13T05:28:55;103211.31;;;7.39;100.00
64192;BME280;50497;50.720;-2.084;2023-02-13T05:31:39;103215.69;;;7.31;100.00
64192;BME280;50497;50.720;-2.084;2023-02-13T05:34:05;103210.38;;;7.29;100.00
64192;BME280;50497;50.720;-2.084;2023-02-13T05:36:30;103214.88;;;7.41;100.00
64192;BME280;50497;50.720;-2.084;2023-02-13T05:38:56;103213.94;;;7.33;100.00
64192;BME280;50497;50.720;-2.084;2023-02-13T05:41:21;103220.22;;;7.44;100.00
64192;BME280;50497;50.720;-2.084;2023-02-13T05:43:47;103206.88;;;7.41;100.00
64192;BME280;50497;50.720;-2.084;2023-02-13T05:46:12;103206.78;;;7.30;100.00
64192;BME280;50497;50.720;-2.084;2023-02-13T05:48:38;103208.59;;;7.30;100.00
64192;BME280;50497;50.720;-2.084;2023-02-13T05:51:07;103203.22;;;7.27;100.00
64192;BME280;50497;50.720;-2.084;2023-02-13T05:53:35;103195.22;;;7.19;100.00
64192;BME280;50497;50.720;-2.084;2023-02-13T05:56:03;103188.03;;;7.10;100.00
64192;BME280;50497;50.720;-2.084;2023-02-13T05:58:29;103186.31;;;7.12;100.00
64192;BME280;50497;50.720;-2.084;2023-02-13T06:00:56;103184.50;;;7.10;100.00
64192;BME280;50497;50.720;-2.084;2023-02-13T06:03:26;103163.16;;;7.02;100.00
64192;BME280;50497;50.720;-2.084;2023-02-13T06:05:52;103180.88;;;6.98;100.00
64192;BME280;50497;50.720;-2.084;2023-02-13T06:08:22;103181.78;;;6.99;100.00
64192;BME280;50497;50.720;-2.084;2023-02-13T06:10:48;103178.16;;;6.88;100.00
64192;BME280;50497;50.720;-2.084;2023-02-13T06:13:15;103180.00;;;7.01;100.00
64192;BME280;50497;50.720;-2.084;2023-02-13T06:15:41;103176.44;;;6.97;100.00
64192;BME280;50497;50.720;-2.084;2023-02-13T06:18:07;103164.84;;;6.88;100.00
64192;BME280;50497;50.720;-2.084;2023-02-13T06:20:33;103191.59;;;7.06;100.00
64192;BME280;50497;50.720;-2.084;2023-02-13T06:22:59;103188.03;;;7.07;100.00
64192;BME280;50497;50.720;-2.084;2023-02-13T06:25:25;103188.91;;;7.06;100.00
64192;BME280;50497;50.720;-2.084;2023-02-13T06:27:51;103185.31;;;6.96;100.00
64192;BME280;50497;50.720;-2.084;2023-02-13T06:30:17;103179.94;;;6.92;100.00
64192;BME280;50497;50.720;-2.084;2023-02-13T06:32:45;103174.63;;;6.92;100.00
64192;BME280;50497;50.720;-2.084;2023-02-13T06:35:10;103177.25;;;6.90;100.00
64192;BME280;50497;50.720;-2.084;2023-02-13T06:37:36;103171.97;;;6.93;100.00
64192;BME280;50497;50.720;-2.084;2023-02-13T06:40:02;103154.09;;;6.74;100.00
64192;BME280;50497;50.720;-2.084;2023-02-13T06:42:27;103166.59;;;6.84;100.00
64192;BME280;50497;50.720;-2.084;2023-02-13T06:44:53;103156.81;;;6.83;100.00
64192;BME280;50497;50.720;-2.084;2023-02-13T06:47:19;103163.03;;;6.83;100.00
64192;BME280;50497;50.720;-2.084;2023-02-13T06:49:45;103172.78;;;6.81;100.00
64192;BME280;50497;50.720;-2.084;2023-02-13T06:52:10;103169.22;;;6.78;100.00
64192;BME280;50497;50.720;-2.084;2023-02-13T06:54:38;103175.41;;;6.80;100.00
64192;BME280;50497;50.720;-2.084;2023-02-13T06:57:05;103183.44;;;6.84;100.00
64192;BME280;50497;50.720;-2.084;2023-02-13T06:59:33;103185.22;;;6.82;100.00
64192;BME280;50497;50.720;-2.084;2023-02-13T07:02:03;103170.06;;;6.77;100.00
64192;BME280;50497;50.720;-2.084;2023-02-13T07:04:28;103169.25;;;6.82;100.00
64192;BME280;50497;50.720;-2.084;2023-02-13T07:06:57;103149.66;;;6.71;100.00
64192;BME280;50497;50.720;-2.084;2023-02-13T07:09:23;103158.50;;;6.70;100.00
64192;BME280;50497;50.720;-2.084;2023-02-13T07:11:49;103156.75;;;6.75;100.00
64192;BME280;50497;50.720;-2.084;2023-02-13T07:14:16;103153.16;;;6.69;100.00
64192;BME280;50497;50.720;-2.084;2023-02-13T07:16:42;103146.03;;;6.63;100.00
64192;BME280;50497;50.720;-2.084;2023-02-13T07:19:07;103166.44;;;6.65;100.00
64192;BME280;50497;50.720;-2.084;2023-02-13T07:21:36;103181.50;;;6.65;100.00
64192;BME280;50497;50.720;-2.084;2023-02-13T07:24:03;103183.31;;;6.66;100.00
64192;BME280;50497;50.720;-2.084;2023-02-13T07:26:40;103183.34;;;6.72;100.00
64192;BME280;50497;50.720;-2.084;2023-02-13T07:29:11;103175.34;;;6.69;100.00
64192;BME280;50497;50.720;-2.084;2023-02-13T07:31:37;103178.00;;;6.69;100.00
64192;BME280;50497;50.720;-2.084;2023-02-13T07:34:03;103173.53;;;6.66;100.00
64192;BME280;50497;50.720;-2.084;2023-02-13T07:36:29;103182.41;;;6.67;100.00
64192;BME280;50497;50.720;-2.084;2023-02-13T07:38:58;103176.22;;;6.68;100.00
64192;BME280;50497;50.720;-2.084;2023-02-13T07:41:24;103174.41;;;6.64;100.00
64192;BME280;50497;50.720;-2.084;2023-02-13T07:44:01;103183.25;;;6.61;100.00
64192;BME280;50497;50.720;-2.084;2023-02-13T07:46:30;103178.78;;;6.59;100.00
64192;BME280;50497;50.720;-2.084;2023-02-13T07:48:59;103177.94;;;6.60;100.00
64192;BME280;50497;50.720;-2.084;2023-02-13T07:51:25;103183.34;;;6.72;100.00
64192;BME280;50497;50.720;-2.084;2023-02-13T07:53:53;103179.72;;;6.64;100.00
64192;BME280;50497;50.720;-2.084;2023-02-13T07:56:20;103176.19;;;6.65;100.00
64192;BME280;50497;50.720;-2.084;2023-02-13T07:58:50;103174.44;;;6.69;100.00
64192;BME280;50497;50.720;-2.084;2023-02-13T08:01:16;103171.75;;;6.61;100.00
64192;BME280;50497;50.720;-2.084;2023-02-13T08:03:50;103188.69;;;6.77;100.00
64192;BME280;50497;50.720;-2.084;2023-02-13T08:06:24;103189.59;;;6.77;100.00
64192;BME280;50497;50.720;-2.084;2023-02-13T08:08:52;103186.09;;;6.84;100.00
64192;BME280;50497;50.720;-2.084;2023-02-13T08:11:42;103191.44;;;6.86;100.00
64192;BME280;50497;50.720;-2.084;2023-02-13T08:14:26;103192.44;;;6.99;100.00
64192;BME280;50497;50.720;-2.084;2023-02-13T08:16:58;103199.47;;;6.91;100.00
64192;BME280;50497;50.720;-2.084;2023-02-13T08:19:28;103177.25;;;6.90;100.00
64192;BME280;50497;50.720;-2.084;2023-02-13T08:22:05;103196.91;;;7.06;100.00
64192;BME280;50497;50.720;-2.084;2023-02-13T08:24:34;103192.41;;;7.02;100.00
64192;BME280;50497;50.720;-2.084;2023-02-13T08:27:10;103188.97;;;7.17;100.00
64192;BME280;50497;50.720;-2.084;2023-02-13T08:29:39;103194.25;;;7.09;100.00
64192;BME280;50497;50.720;-2.084;2023-02-13T08:32:10;103192.53;;;7.16;100.00
64192;BME280;50497;50.720;-2.084;2023-02-13T08:34:36;103188.97;;;7.18;100.00
64192;BME280;50497;50.720;-2.084;2023-02-13T08:37:07;103204.97;;;7.21;100.00
64192;BME280;50497;50.720;-2.084;2023-02-13T08:39:34;103212.13;;;7.26;100.00
64192;BME280;50497;50.720;-2.084;2023-02-13T08:42:02;103205.94;;;7.33;100.00
64192;BME280;50497;50.720;-2.084;2023-02-13T08:44:27;103218.38;;;7.34;100.00
64192;BME280;50497;50.720;-2.084;2023-02-13T08:46:54;103219.28;;;7.36;100.00
64192;BME280;50497;50.720;-2.084;2023-02-13T08:49:22;103229.03;;;7.37;100.00
64192;BME280;50497;50.720;-2.084;2023-02-13T08:51:49;103225.56;;;7.46;100.00
64192;BME280;50497;50.720;-2.084;2023-02-13T08:54:19;103232.63;;;7.45;100.00
64192;BME280;50497;50.720;-2.084;2023-02-13T08:56:44;103222.03;;;7.56;100.00
64192;BME280;50497;50.720;-2.084;2023-02-13T08:59:10;103227.34;;;7.53;100.00
64192;BME280;50497;50.720;-2.084;2023-02-13T09:01:36;103223.78;;;7.46;100.00
64192;BME280;50497;50.720;-2.084;2023-02-13T09:04:06;103226.50;;;7.55;100.00
64192;BME280;50497;50.720;-2.084;2023-02-13T09:06:31;103220.31;;;7.64;100.00
64192;BME280;50497;50.720;-2.084;2023-02-13T09:08:59;103222.97;;;7.63;100.00
64192;BME280;50497;50.720;-2.084;2023-02-13T09:11:32;103229.22;;;7.68;100.00
64192;BME280;50497;50.720;-2.084;2023-02-13T09:14:00;103225.59;;;7.58;100.00
64192;BME280;50497;50.720;-2.084;2023-02-13T09:16:26;103225.66;;;7.66;100.00
64192;BME280;50497;50.720;-2.084;2023-02-13T09:18:55;103218.56;;;7.68;100.00
64192;BME280;50497;50.720;-2.084;2023-02-13T09:21:27;103223.06;;;7.84;100.00
64192;BME280;50497;50.720;-2.084;2023-02-13T09:23:53;103223.06;;;7.93;100.00
64192;BME280;50497;50.720;-2.084;2023-02-13T09:26:19;103224.84;;;7.88;100.00
64192;BME280;50497;50.720;-2.084;2023-02-13T09:28:49;103223.06;;;7.93;100.00
64192;BME280;50497;50.720;-2.084;2023-02-13T09:31:17;103217.81;;;8.06;100.00
64192;BME280;50497;50.720;-2.084;2023-02-13T09:33:44;103221.31;;;8.02;100.00
64192;BME280;50497;50.720;-2.084;2023-02-13T09:36:26;103222.19;;;7.90;100.00
64192;BME280;50497;50.720;-2.084;2023-02-13T09:38:53;103225.75;;;7.96;100.00
64192;BME280;50497;50.720;-2.084;2023-02-13T09:41:32;103235.50;;;7.84;100.00
64192;BME280;50497;50.720;-2.084;2023-02-13T09:44:06;103230.16;;;7.88;100.00
64192;BME280;50497;50.720;-2.084;2023-02-13T09:46:43;103232.84;;;7.93;100.00
64192;BME280;50497;50.720;-2.084;2023-02-13T09:49:19;103221.28;;;7.86;100.00
64192;BME280;50497;50.720;-2.084;2023-02-13T09:51:57;103226.69;;;8.00;100.00
64192;BME280;50497;50.720;-2.084;2023-02-13T09:54:23;103224.91;;;8.01;100.00
64192;BME280;50497;50.720;-2.084;2023-02-13T09:56:57;103232.91;;;8.04;100.00
64192;BME280;50497;50.720;-2.084;2023-02-13T10:02:07;103232.00;;;7.97;100.00
64192;BME280;50497;50.720;-2.084;2023-02-13T10:13:39;103219.63;;;8.25;100.00
64192;BME280;50497;50.720;-2.084;2023-02-13T10:21:33;103216.97;;;8.36;100.00
64192;BME280;50497;50.720;-2.084;2023-02-13T10:24:06;103224.09;;;8.37;100.00
64192;BME280;50497;50.720;-2.084;2023-02-13T10:26:38;103224.06;;;8.20;100.00
64192;BME280;50497;50.720;-2.084;2023-02-13T10:29:23;103225.88;;;8.29;100.00
64192;BME280;50497;50.720;-2.084;2023-02-13T10:32:16;103215.25;;;8.54;100.00
64192;BME280;50497;50.720;-2.084;2023-02-13T10:34:45;103211.69;;;8.44;100.00
64192;BME280;50497;50.720;-2.084;2023-02-13T10:37:17;103234.75;;;8.34;100.00
64192;BME280;50497;50.720;-2.084;2023-02-13T10:40:04;103240.97;;;8.31;100.00
64192;BME280;50497;50.720;-2.084;2023-02-13T10:42:42;103233.88;;;8.33;100.00
64192;BME280;50497;50.720;-2.084;2023-02-13T10:48:10;103238.28;;;8.31;100.00
64192;BME280;50497;50.720;-2.084;2023-02-13T10:50:47;103237.41;;;8.29;100.00
64192;BME280;50497;50.720;-2.084;2023-02-13T10:56:08;103224.16;;;8.59;100.00
64192;BME280;50497;50.720;-2.084;2023-02-13T10:58:56;103231.25;;;8.64;100.00
64192;BME280;50497;50.720;-2.084;2023-02-13T11:01:46;103210.81;;;8.60;100.00
64192;BME280;50497;50.720;-2.084;2023-02-13T11:04:18;103232.16;;;8.76;100.00
64192;BME280;50497;50.720;-2.084;2023-02-13T11:06:58;103227.69;;;9.04;100.00
64192;BME280;50497;50.720;-2.084;2023-02-13T11:09:39;103233.94;;;9.11;100.00
64192;BME280;50497;50.720;-2.084;2023-02-13T11:12:29;103226.81;;;8.93;100.00
64192;BME280;50497;50.720;-2.084;2023-02-13T11:15:01;103246.38;;;8.95;100.00
64192;BME280;50497;50.720;-2.084;2023-02-13T11:17:30;103230.41;;;8.87;100.00
64192;BME280;50497;50.720;-2.084;2023-02-13T11:20:04;103257.94;;;8.80;100.00
64192;BME280;50497;50.720;-2.084;2023-02-13T11:22:33;103247.28;;;8.94;100.00
64192;BME280;50497;50.720;-2.084;2023-02-13T11:25:11;103245.50;;;9.16;100.00
64192;BME280;50497;50.720;-2.084;2023-02-13T11:27:47;103253.50;;;9.28;100.00
64192;BME280;50497;50.720;-2.084;2023-02-13T11:33:05;103239.22;;;9.38;100.00
64192;BME280;50497;50.720;-2.084;2023-02-13T11:35:36;103230.38;;;9.09;100.00
64192;BME280;50497;50.720;-2.084;2023-02-13T11:40:49;103239.28;;;8.83;100.00
64192;BME280;50497;50.720;-2.084;2023-02-13T11:43:30;103233.97;;;8.75;100.00
64192;BME280;50497;50.720;-2.084;2023-02-13T11:46:07;103233.94;;;8.74;100.00
64192;BME280;50497;50.720;-2.084;2023-02-13T11:48:41;103229.50;;;8.85;100.00
64192;BME280;50497;50.720;-2.084;2023-02-13T11:51:11;103233.00;;;9.36;100.00
64192;BME280;50497;50.720;-2.084;2023-02-13T11:53:39;103233.00;;;9.18;100.00
64192;BME280;50497;50.720;-2.084;2023-02-13T11:56:13;103228.59;;;9.11;100.00
64192;BME280;50497;50.720;-2.084;2023-02-13T11:58:43;103235.69;;;9.16;100.00
64192;BME280;50497;50.720;-2.084;2023-02-13T12:04:16;103226.69;;;9.53;100.00
64192;BME280;50497;50.720;-2.084;2023-02-13T12:07:25;103226.59;;;9.79;100.00
64192;BME280;50497;50.720;-2.084;2023-02-13T12:10:15;103211.53;;;9.62;100.00
64192;BME280;50497;50.720;-2.084;2023-02-13T12:15:38;103216.97;;;9.36;100.00
64192;BME280;50497;50.720;-2.084;2023-02-13T12:18:09;103210.66;;;9.59;100.00
64192;BME280;50497;50.720;-2.084;2023-02-13T12:23:35;103214.31;;;9.24;100.00
64192;BME280;50497;50.720;-2.084;2023-02-13T12:26:19;103210.72;;;9.40;100.00
64192;BME280;50497;50.720;-2.084;2023-02-13T12:29:22;103203.56;;;9.55;100.00
64192;BME280;50497;50.720;-2.084;2023-02-13T12:35:18;103207.09;;;9.63;100.00
64192;BME280;50497;50.720;-2.084;2023-02-13T12:38:16;103202.75;;;9.13;100.00
64192;BME280;50497;50.720;-2.084;2023-02-13T12:41:19;103194.72;;;9.25;100.00
64192;BME280;50497;50.720;-2.084;2023-02-13T12:49:30;103180.16;;;10.03;100.00
64192;BME280;50497;50.720;-2.084;2023-02-13T13:01:03;103185.78;;;9.38;100.00
64192;BME280;50497;50.720;-2.084;2023-02-13T13:03:43;103156.47;;;9.15;100.00
64192;BME280;50497;50.720;-2.084;2023-02-13T13:15:00;103162.56;;;10.87;100.00
64192;BME280;50497;50.720;-2.084;2023-02-13T13:18:00;103160.91;;;10.74;100.00
64192;BME280;50497;50.720;-2.084;2023-02-13T13:20:36;103169.19;;;10.42;100.00
64192;BME280;50497;50.720;-2.084;2023-02-13T13:23:31;103155.84;;;11.28;100.00
64192;BME280;50497;50.720;-2.084;2023-02-13T13:26:24;103164.91;;;11.93;100.00
64192;BME280;50497;50.720;-2.084;2023-02-13T13:28:59;103174.06;;;11.73;100.00
64192;BME280;50497;50.720;-2.084;2023-02-13T13:31:33;103172.25;;;11.02;100.00
64192;BME280;50497;50.720;-2.084;2023-02-13T13:34:06;103155.34;;;10.94;100.00
64192;BME280;50497;50.720;-2.084;2023-02-13T13:36:43;103148.38;;;10.78;100.00
64192;BME280;50497;50.720;-2.084;2023-02-13T13:42:23;103151.03;;;10.79;100.00
64192;BME280;50497;50.720;-2.084;2023-02-13T13:45:13;103139.94;;;11.15;100.00
64192;BME280;50497;50.720;-2.084;2023-02-13T13:50:29;103156.13;;;11.78;100.00
64192;BME280;50497;50.720;-2.084;2023-02-13T13:53:14;103162.03;;;12.61;100.00
64192;BME280;50497;50.720;-2.084;2023-02-13T14:09:42;103143.78;;;10.89;100.00
64192;BME280;50497;50.720;-2.084;2023-02-13T14:14:57;103138.25;;;9.96;100.00
64192;BME280;50497;50.720;-2.084;2023-02-13T14:23:26;103115.38;;;9.46;100.00
64192;BME280;50497;50.720;-2.084;2023-02-13T14:36:45;103108.75;;;10.11;100.00
64192;BME280;50497;50.720;-2.084;2023-02-13T14:44:32;103079.72;;;9.53;100.00
64192;BME280;50497;50.720;-2.084;2023-02-13T14:47:12;103089.53;;;9.49;100.00
64192;BME280;50497;50.720;-2.084;2023-02-13T14:49:40;103085.06;;;9.53;100.00
64192;BME280;50497;50.720;-2.084;2023-02-13T14:52:20;103083.31;;;9.49;100.00
64192;BME280;50497;50.720;-2.084;2023-02-13T14:54:58;103077.19;;;9.25;100.00
64192;BME280;50497;50.720;-2.084;2023-02-13T14:57:28;103054.19;;;8.90;100.00
64192;BME280;50497;50.720;-2.084;2023-02-13T15:03:07;103060.34;;;9.09;100.00
64192;BME280;50497;50.720;-2.084;2023-02-13T15:05:48;103058.50;;;9.23;100.00
64192;BME280;50497;50.720;-2.084;2023-02-13T15:08:34;103045.06;;;9.40;100.00
64192;BME280;50497;50.720;-2.084;2023-02-13T15:11:09;103058.31;;;9.56;100.00
64192;BME280;50497;50.720;-2.084;2023-02-13T15:14:13;103029.75;;;9.67;100.00
64192;BME280;50497;50.720;-2.084;2023-02-13T15:16:39;103049.22;;;9.86;100.00
64192;BME280;50497;50.720;-2.084;2023-02-13T15:19:18;103049.25;;;9.82;100.00
64192;BME280;50497;50.720;-2.084;2023-02-13T15:21:59;103048.31;;;9.86;100.00
64192;BME280;50497;50.720;-2.084;2023-02-13T15:24:45;103053.41;;;10.20;100.00
64192;BME280;50497;50.720;-2.084;2023-02-13T15:27:25;103046.59;;;9.82;100.00
64192;BME280;50497;50.720;-2.084;2023-02-13T15:30:02;103057.44;;;9.55;100.00